»·PEaware :: N253AW KPSP-KFUL

N253AW :: KPSP-KFUL

FLIGHT INFORMATION

Flight Status: Arrived
Operator: Privately registered:
United States
More flights under this callsign
Pilot: Dean S. (16265)
Aircraft: CESSNA 182 SKYLANE
(C182)
More flights by this aircraft type
Origin: KPSP Palm Springs Intl
United States
Destination: KFUL Fullerton Mun
United States
More flights between these airports :: More routes between these airports
Route: WHETO BANDS
File this flight plan on PilotEdge
Remarks:
Altitude:
(Current/Filed)
6,500ft
Speed:
(Current/Filed)
150kts
Departed: 07-Oct-17 09:20 AM
Arrived: 07-Oct-17 09:59 AM
Distance/Time
Traveled:
74nm/0:38
Distance/Time
To Go:
Arrived

Flight Plot

Page will automatically refresh every two minutes.

Flight plan parsing failed; only flown route is shown


Map Options




Map Legend


Flown Route
Filed Route
Departure Airport
Arrival Airport
Navaid (VOR, NDB)
Fix

Horizontal Profiles

Position Reports

Time Latitude Longitude Heading Altitude Ground
Speed
07-Oct-17 09:07 33.825169 -116.508904 106 480ft 0kts
07-Oct-17 09:08 33.825168 -116.508903 106 480ft 0kts
07-Oct-17 09:09 33.825168 -116.508902 106 480ft 0kts
07-Oct-17 09:10 33.825168 -116.508902 106 480ft 0kts
07-Oct-17 09:11 33.825168 -116.508901 106 480ft 0kts
07-Oct-17 09:12 33.825168 -116.508901 106 480ft 0kts
07-Oct-17 09:13 33.825168 -116.508900 106 480ft 0kts
07-Oct-17 09:14 33.825168 -116.508900 106 480ft 0kts
07-Oct-17 09:15 33.825167 -116.508899 106 480ft 0kts
07-Oct-17 09:16 33.825167 -116.508899 106 480ft 0kts
07-Oct-17 09:17 33.825167 -116.508898 106 480ft 0kts
07-Oct-17 09:18 33.824483 -116.506565 69 480ft 8kts
07-Oct-17 09:19 33.823402 -116.503780 142 480ft 18kts
07-Oct-17 09:20 33.819087 -116.500019 144 480ft 10kts
07-Oct-17 09:21 33.817579 -116.497884 49 480ft 0kts
07-Oct-17 09:22 33.817579 -116.497884 49 480ft 0kts
07-Oct-17 09:23 33.818542 -116.497747 325 480ft 7kts
07-Oct-17 09:24 33.833791 -116.511319 318 875ft 101kts
07-Oct-17 09:25 33.855695 -116.533282 321 1934ft 101kts
07-Oct-17 09:26 33.879615 -116.554293 325 2874ft 115kts
07-Oct-17 09:27 33.908105 -116.576305 328 3663ft 126kts
07-Oct-17 09:28 33.939231 -116.598045 330 4440ft 130kts
07-Oct-17 09:29 33.942681 -116.629259 240 5633ft 107kts
07-Oct-17 09:30 33.925589 -116.660191 239 6551ft 124kts
07-Oct-17 09:31 33.920357 -116.707848 265 6578ft 155kts
07-Oct-17 09:32 33.914264 -116.759027 258 6592ft 152kts
07-Oct-17 09:33 33.901534 -116.806933 243 6603ft 150kts
07-Oct-17 09:34 33.881326 -116.850900 249 6593ft 150kts
07-Oct-17 09:35 33.890223 -116.898938 279 6579ft 150kts
07-Oct-17 09:36 33.889502 -116.949115 266 6575ft 150kts
07-Oct-17 09:37 33.886737 -116.999313 265 6567ft 150kts
07-Oct-17 09:38 33.883088 -117.049604 268 6557ft 150kts
07-Oct-17 09:39 33.886429 -117.099715 272 6549ft 150kts
07-Oct-17 09:40 33.886996 -117.150180 268 6541ft 150kts
07-Oct-17 09:41 33.885207 -117.200428 265 6534ft 150kts
07-Oct-17 09:42 33.882727 -117.250637 267 6530ft 150kts
07-Oct-17 09:43 33.880072 -117.300957 265 6529ft 150kts
07-Oct-17 09:44 33.877468 -117.351132 267 6523ft 150kts
07-Oct-17 09:45 33.877724 -117.401442 270 6513ft 150kts
07-Oct-17 09:46 33.877813 -117.450935 268 5924ft 144kts
07-Oct-17 09:47 33.876410 -117.499344 266 5063ft 141kts
07-Oct-17 09:48 33.874355 -117.545608 267 4598ft 130kts
07-Oct-17 09:49 33.872719 -117.586889 266 4497ft 116kts
07-Oct-17 09:50 33.870055 -117.625025 263 4499ft 112kts
07-Oct-17 09:51 33.879518 -117.657387 301 4496ft 98kts
07-Oct-17 09:52 33.892849 -117.686224 297 4069ft 98kts
07-Oct-17 09:53 33.904861 -117.716072 294 3458ft 99kts
07-Oct-17 09:54 33.915435 -117.746353 284 2831ft 98kts
07-Oct-17 09:55 33.912313 -117.777927 254 2298ft 96kts
07-Oct-17 09:56 33.907088 -117.807368 256 2029ft 92kts
07-Oct-17 09:57 33.900471 -117.834650 256 1697ft 81kts
07-Oct-17 09:58 33.895225 -117.861377 256 1266ft 82kts
07-Oct-17 09:59 33.889968 -117.887398 256 932ft 69kts
07-Oct-17 10:00 33.885170 -117.912417 254 933ft 80kts
07-Oct-17 10:01 33.880021 -117.938995 255 597ft 82kts
07-Oct-17 10:02 33.874819 -117.965115 258 249ft 76kts
07-Oct-17 10:03 33.871744 -117.979455 164 99ft 0kts
07-Oct-17 10:04 33.870722 -117.981417 166 99ft 0kts
07-Oct-17 10:05 33.870721 -117.981417 166 99ft 0kts

Navigation Log

Ident Type
Flight plan parsing failed, navigation log unavailable